createdAt,value
2022-08-21T00:02:16.793Z,22.41
2022-08-21T00:04:55.834Z,22.37
2022-08-21T00:07:28.025Z,22.29
2022-08-21T00:09:57.637Z,22.27
2022-08-21T00:12:26.574Z,22.19
2022-08-21T00:14:58.121Z,22.13
2022-08-21T00:17:28.434Z,22.13
2022-08-21T00:19:57.324Z,22.08
2022-08-21T00:22:25.976Z,22.03
2022-08-21T00:24:54.572Z,21.99
2022-08-21T00:27:23.392Z,21.93
2022-08-21T00:29:52.818Z,21.86
2022-08-21T00:32:26.878Z,21.83
2022-08-21T00:34:57.447Z,21.81
2022-08-21T00:37:26.652Z,21.76
2022-08-21T00:39:55.269Z,21.73
2022-08-21T00:42:24.344Z,21.70
2022-08-21T00:44:53.149Z,21.66
2022-08-21T00:47:22.022Z,21.62
2022-08-21T00:49:50.834Z,21.55
2022-08-21T00:52:28.813Z,21.55
2022-08-21T00:54:59.903Z,21.46
2022-08-21T00:57:36.028Z,21.43
2022-08-21T01:00:16.806Z,21.40
2022-08-21T01:02:45.735Z,21.37
2022-08-21T01:05:15.823Z,21.39
2022-08-21T01:07:46.225Z,21.39
2022-08-21T01:10:24.044Z,21.35
2022-08-21T01:12:57.198Z,21.30
2022-08-21T01:15:31.438Z,21.24
2022-08-21T01:18:00.449Z,21.24
2022-08-21T01:20:32.880Z,21.24
2022-08-21T01:23:03.977Z,21.23
2022-08-21T01:25:34.221Z,21.20
2022-08-21T01:28:13.027Z,21.30
2022-08-21T01:30:45.306Z,21.24
2022-08-21T01:33:14.100Z,21.34
2022-08-21T01:35:42.638Z,21.30
2022-08-21T01:38:13.220Z,21.26
2022-08-21T01:40:41.979Z,21.17
2022-08-21T01:43:10.626Z,21.05
2022-08-21T01:45:39.512Z,20.90
2022-08-21T01:48:08.353Z,20.77
2022-08-21T01:50:37.305Z,20.69
2022-08-21T01:53:06.845Z,20.64
2022-08-21T01:55:37.126Z,20.65
2022-08-21T01:58:05.712Z,20.61
2022-08-21T02:00:34.303Z,20.58
2022-08-21T02:03:03.076Z,20.56
2022-08-21T02:05:31.770Z,20.52
2022-08-21T02:08:00.346Z,20.44
2022-08-21T02:10:33.483Z,20.38
2022-08-21T02:13:03.673Z,20.34
2022-08-21T02:15:32.808Z,20.32
2022-08-21T02:18:04.468Z,20.34
2022-08-21T02:20:38.482Z,20.33
2022-08-21T02:23:09.748Z,20.28
2022-08-21T02:25:39.306Z,20.22
2022-08-21T02:28:12.903Z,20.20
2022-08-21T02:30:46.085Z,20.12
2022-08-21T02:33:15.852Z,20.16
2022-08-21T02:35:48.236Z,20.18
2022-08-21T02:38:20.524Z,20.17
2022-08-21T02:40:53.070Z,20.14
2022-08-21T02:43:26.780Z,20.07
2022-08-21T02:45:57.264Z,20.04
2022-08-21T02:48:30.933Z,20.03
2022-08-21T02:51:04.116Z,20.01
2022-08-21T02:53:35.330Z,19.98
2022-08-21T02:56:08.323Z,19.99
2022-08-21T02:58:42.812Z,19.96
2022-08-21T03:01:13.154Z,19.93
2022-08-21T03:03:45.651Z,19.95
2022-08-21T03:06:17.040Z,19.96
2022-08-21T03:08:46.835Z,19.94
2022-08-21T03:11:16.543Z,19.95
2022-08-21T03:13:46.682Z,19.95
2022-08-21T03:16:15.875Z,19.93
2022-08-21T03:18:44.444Z,19.90
2022-08-21T03:21:14.138Z,19.95
2022-08-21T03:23:44.107Z,19.93
2022-08-21T03:26:14.262Z,19.92
2022-08-21T03:28:42.962Z,19.97
2022-08-21T03:31:13.072Z,19.98
2022-08-21T03:33:41.623Z,19.96
2022-08-21T03:36:12.024Z,19.99
2022-08-21T03:38:41.353Z,19.98
2022-08-21T03:41:10.532Z,19.94
2022-08-21T03:43:39.539Z,19.92
2022-08-21T03:46:09.072Z,19.93
2022-08-21T03:48:40.543Z,19.93
2022-08-21T03:51:10.346Z,19.95
2022-08-21T03:53:38.895Z,19.94
2022-08-21T03:56:08.820Z,19.98
2022-08-21T03:58:37.936Z,19.99
2022-08-21T04:01:08.365Z,20.01
2022-08-21T04:03:39.886Z,20.07
2022-08-21T04:06:09.691Z,20.09
2022-08-21T04:08:39.086Z,20.11
2022-08-21T04:11:08.415Z,20.12
2022-08-21T04:13:44.311Z,20.16
2022-08-21T04:16:14.021Z,20.22
2022-08-21T04:18:44.543Z,20.27
2022-08-21T04:21:14.138Z,20.28
2022-08-21T04:23:42.795Z,20.29
2022-08-21T04:26:12.537Z,20.30
2022-08-21T04:28:41.105Z,20.34
2022-08-21T04:31:10.677Z,20.42
2022-08-21T04:33:39.483Z,20.50
2022-08-21T04:36:28.367Z,20.57
2022-08-21T04:38:57.211Z,20.61
2022-08-21T04:41:28.131Z,20.64
2022-08-21T04:43:57.243Z,20.59
2022-08-21T04:46:26.237Z,20.68
2022-08-21T04:48:55.161Z,20.65
2022-08-21T04:51:31.948Z,20.68
2022-08-21T04:54:08.720Z,20.72
2022-08-21T04:56:43.776Z,20.80
2022-08-21T04:59:18.329Z,20.80
2022-08-21T05:01:49.310Z,20.75
2022-08-21T05:04:25.039Z,20.74
2022-08-21T05:06:59.761Z,20.93
2022-08-21T05:09:31.214Z,20.93
2022-08-21T05:12:00.029Z,21.00
2022-08-21T05:14:28.560Z,21.05
2022-08-21T05:16:57.353Z,21.10
2022-08-21T05:19:26.911Z,21.27
2022-08-21T05:21:56.959Z,21.40
2022-08-21T05:24:26.249Z,21.54
2022-08-21T05:26:55.038Z,21.63
2022-08-21T05:29:24.165Z,21.63
2022-08-21T05:31:53.463Z,21.66
2022-08-21T05:34:24.740Z,21.56
2022-08-21T05:36:53.572Z,21.63
2022-08-21T05:39:23.463Z,21.58
2022-08-21T05:41:52.011Z,21.48
2022-08-21T05:44:20.795Z,21.49
2022-08-21T05:46:51.686Z,21.44
2022-08-21T05:49:20.275Z,21.41
2022-08-21T05:51:49.051Z,21.43
2022-08-21T05:54:17.599Z,21.55
2022-08-21T05:56:47.941Z,21.76
2022-08-21T05:59:17.061Z,21.86
2022-08-21T06:01:46.327Z,22.01
2022-08-21T06:04:15.913Z,22.18
2022-08-21T06:06:44.661Z,22.23
2022-08-21T06:09:13.215Z,22.16
2022-08-21T06:11:41.845Z,22.32
2022-08-21T06:14:12.467Z,22.39
2022-08-21T06:16:41.052Z,22.38
2022-08-21T06:19:09.711Z,22.43
2022-08-21T06:21:38.503Z,22.57
2022-08-21T06:24:08.935Z,22.62
2022-08-21T06:26:38.070Z,22.74
2022-08-21T06:29:07.177Z,22.79
2022-08-21T06:31:37.205Z,23.01
2022-08-21T06:34:06.679Z,23.24
2022-08-21T06:36:35.614Z,23.10
2022-08-21T06:39:16.477Z,23.22
2022-08-21T06:41:53.778Z,23.29
2022-08-21T06:44:30.108Z,23.20
2022-08-21T06:47:00.257Z,23.11
2022-08-21T06:49:28.811Z,23.19
2022-08-21T06:51:57.508Z,23.38
2022-08-21T06:54:26.411Z,23.49
2022-08-21T06:56:55.047Z,23.59
2022-08-21T06:59:23.810Z,23.92
2022-08-21T07:01:52.725Z,24.25
2022-08-21T07:04:22.700Z,24.70
2022-08-21T07:06:51.323Z,24.95
2022-08-21T07:09:24.400Z,25.44
2022-08-21T07:11:57.766Z,25.50
2022-08-21T07:14:26.713Z,25.47
2022-08-21T07:16:55.375Z,25.70
2022-08-21T07:19:25.364Z,26.52
2022-08-21T07:22:02.377Z,26.98
2022-08-21T07:24:31.635Z,26.83
2022-08-21T07:27:00.495Z,26.73
2022-08-21T07:29:29.147Z,26.99
2022-08-21T07:31:57.791Z,27.23
2022-08-21T07:34:27.931Z,27.61
2022-08-21T07:36:56.649Z,28.59
2022-08-21T07:39:27.407Z,29.33
2022-08-21T07:41:56.199Z,30.29
2022-08-21T07:44:24.816Z,30.64
2022-08-21T07:46:53.431Z,30.66
2022-08-21T07:49:22.264Z,30.99
2022-08-21T07:51:52.914Z,31.69
2022-08-21T07:54:33.344Z,31.88
2022-08-21T07:57:03.087Z,32.17
2022-08-21T07:59:31.876Z,32.78
2022-08-21T08:02:00.626Z,32.75
2022-08-21T08:04:29.380Z,32.85
2022-08-21T08:06:59.350Z,33.42
2022-08-21T08:09:28.031Z,34.10
2022-08-21T08:11:56.865Z,33.85
2022-08-21T08:14:26.508Z,33.36
2022-08-21T08:17:00.484Z,33.65
2022-08-21T08:19:29.024Z,32.98
2022-08-21T08:21:59.100Z,32.83
2022-08-21T08:24:27.940Z,33.30
2022-08-21T08:26:58.061Z,33.02
2022-08-21T08:29:26.610Z,33.91
2022-08-21T08:31:56.506Z,33.14
2022-08-21T08:34:25.601Z,33.81
2022-08-21T08:36:54.996Z,34.65
2022-08-21T08:39:29.639Z,32.97
2022-08-21T08:42:33.543Z,33.10
2022-08-21T08:45:03.870Z,33.20
2022-08-21T08:47:36.802Z,33.10
2022-08-21T08:50:11.837Z,33.85
2022-08-21T08:52:51.132Z,33.70
2022-08-21T08:55:36.631Z,33.48
2022-08-21T08:58:06.030Z,34.61
2022-08-21T09:00:35.612Z,34.00
2022-08-21T09:03:06.116Z,33.64
2022-08-21T09:05:47.436Z,33.52
2022-08-21T09:08:50.625Z,34.60
2022-08-21T09:11:31.425Z,33.34
2022-08-21T09:14:16.444Z,33.53
2022-08-21T09:16:55.989Z,33.75
2022-08-21T09:19:44.746Z,33.77
2022-08-21T09:22:29.992Z,32.04
2022-08-21T09:25:12.908Z,32.98
2022-08-21T09:27:43.029Z,32.79
2022-08-21T09:30:13.376Z,30.52
2022-08-21T09:32:42.544Z,30.51
2022-08-21T09:35:17.655Z,31.98
2022-08-21T09:37:55.634Z,30.76
2022-08-21T09:40:38.767Z,30.40
2022-08-21T09:43:19.977Z,30.42
2022-08-21T09:46:02.770Z,32.36
2022-08-21T09:48:32.532Z,35.21
2022-08-21T09:51:12.838Z,33.32
2022-08-21T09:53:48.691Z,34.33
2022-08-21T09:56:46.797Z,33.44
2022-08-21T09:59:27.794Z,33.26
2022-08-21T10:01:56.830Z,32.60
2022-08-21T10:04:33.090Z,33.60
2022-08-21T10:07:13.548Z,34.76
2022-08-21T10:09:43.728Z,33.99
2022-08-21T10:12:30.872Z,35.39
2022-08-21T10:15:14.612Z,38.32
2022-08-21T10:18:05.077Z,35.45
2022-08-21T10:20:46.996Z,35.25
2022-08-21T10:23:36.702Z,34.76
2022-08-21T10:26:23.076Z,36.05
2022-08-21T10:29:06.256Z,37.14
2022-08-21T10:31:55.636Z,35.73
2022-08-21T10:34:50.782Z,36.52
2022-08-21T10:37:39.212Z,36.69
2022-08-21T10:40:23.557Z,35.94
2022-08-21T10:43:14.828Z,33.72
2022-08-21T10:45:59.698Z,32.80
2022-08-21T10:48:37.452Z,31.25
2022-08-21T10:51:16.434Z,30.90
2022-08-21T10:54:05.881Z,31.78
2022-08-21T10:56:40.760Z,31.38
2022-08-21T10:59:33.258Z,31.74
2022-08-21T11:02:19.035Z,32.89
2022-08-21T11:05:02.010Z,33.24
2022-08-21T11:07:38.007Z,32.94
2022-08-21T11:10:17.682Z,31.71
2022-08-21T11:12:54.831Z,31.22
2022-08-21T11:15:45.895Z,31.75
2022-08-21T11:18:26.854Z,31.31
2022-08-21T11:21:10.436Z,30.27
2022-08-21T11:23:48.715Z,29.81
2022-08-21T11:26:30.792Z,30.42
2022-08-21T11:29:13.765Z,29.08
2022-08-21T11:32:05.845Z,30.00
2022-08-21T11:34:52.282Z,29.16
2022-08-21T11:37:46.630Z,29.83
2022-08-21T11:40:42.611Z,29.58
2022-08-21T11:43:23.259Z,30.60
2022-08-21T11:45:55.296Z,30.41
2022-08-21T11:48:47.467Z,30.02
2022-08-21T11:51:22.760Z,30.06
2022-08-21T11:54:08.006Z,29.78
2022-08-21T11:56:43.378Z,30.02
2022-08-21T11:59:21.726Z,30.44
2022-08-21T12:01:55.483Z,29.76
2022-08-21T12:04:30.998Z,30.25
2022-08-21T12:07:17.797Z,30.33
2022-08-21T12:09:58.717Z,29.89
2022-08-21T12:12:30.800Z,29.59
2022-08-21T12:15:28.246Z,29.90
2022-08-21T12:18:02.163Z,29.13
2022-08-21T12:20:50.489Z,29.58
2022-08-21T12:23:30.411Z,29.07
2022-08-21T12:26:28.610Z,29.89
2022-08-21T12:29:27.654Z,30.30
2022-08-21T12:32:02.899Z,29.58
2022-08-21T12:34:38.692Z,30.06
2022-08-21T12:37:20.031Z,30.20
2022-08-21T12:39:53.791Z,29.23
2022-08-21T12:42:35.269Z,29.19
2022-08-21T12:45:17.053Z,29.33
2022-08-21T12:47:53.155Z,29.90
2022-08-21T12:50:31.001Z,29.65
2022-08-21T12:53:18.513Z,30.32
2022-08-21T12:55:50.107Z,30.78
2022-08-21T12:58:22.222Z,29.75
2022-08-21T13:00:56.755Z,29.53
2022-08-21T13:03:27.126Z,29.60
2022-08-21T13:05:56.385Z,29.08
2022-08-21T13:08:29.567Z,28.86
2022-08-21T13:11:15.260Z,28.65
2022-08-21T13:13:51.389Z,28.82
2022-08-21T13:16:28.312Z,29.26
2022-08-21T13:19:04.544Z,29.45
2022-08-21T13:21:40.663Z,29.46
2022-08-21T13:24:39.143Z,29.28
2022-08-21T13:27:23.723Z,30.56
2022-08-21T13:30:09.022Z,29.44
2022-08-21T13:32:44.368Z,29.60
2022-08-21T13:35:18.790Z,29.89
2022-08-21T13:37:52.094Z,30.87
2022-08-21T13:40:27.201Z,29.98
2022-08-21T13:42:57.748Z,30.23
2022-08-21T13:45:33.035Z,29.46
2022-08-21T13:48:06.578Z,28.90
2022-08-21T13:50:39.234Z,28.59
2022-08-21T13:53:23.783Z,28.91
2022-08-21T13:55:54.521Z,28.72
2022-08-21T13:58:31.271Z,29.02
2022-08-21T14:01:06.414Z,28.91
2022-08-21T14:03:43.678Z,28.81
2022-08-21T14:06:19.737Z,28.69
2022-08-21T14:08:55.295Z,28.27
2022-08-21T14:11:24.617Z,28.29
2022-08-21T14:14:01.203Z,28.30
2022-08-21T14:16:46.651Z,28.60
2022-08-21T14:19:23.767Z,28.36
2022-08-21T14:21:52.784Z,28.15
2022-08-21T14:24:31.199Z,27.98
2022-08-21T14:27:07.031Z,28.02
2022-08-21T14:29:40.126Z,28.11
2022-08-21T14:32:21.558Z,29.23
2022-08-21T14:34:54.711Z,28.57
2022-08-21T14:37:24.304Z,28.80
2022-08-21T14:39:53.104Z,29.74
2022-08-21T14:42:22.763Z,29.39
2022-08-21T14:44:51.850Z,29.50
2022-08-21T14:47:22.089Z,28.74
2022-08-21T14:49:51.367Z,28.39
2022-08-21T14:52:19.975Z,28.65
2022-08-21T14:54:48.615Z,28.84
2022-08-21T14:57:17.508Z,28.75
2022-08-21T14:59:46.166Z,28.43
2022-08-21T15:02:14.829Z,28.58
2022-08-21T15:04:44.998Z,28.26
2022-08-21T15:07:13.595Z,28.75
2022-08-21T15:09:42.296Z,28.23
2022-08-21T15:12:11.928Z,27.82
2022-08-21T15:14:42.965Z,27.70
2022-08-21T15:17:13.181Z,27.76
2022-08-21T15:19:42.204Z,28.14
2022-08-21T15:22:18.890Z,27.87
2022-08-21T15:24:48.049Z,27.82
2022-08-21T15:27:20.005Z,27.69
2022-08-21T15:29:49.439Z,27.59
2022-08-21T15:32:23.848Z,27.76
2022-08-21T15:34:54.311Z,27.77
2022-08-21T15:37:26.047Z,27.70
2022-08-21T15:39:55.432Z,28.02
2022-08-21T15:42:25.317Z,27.74
2022-08-21T15:44:56.182Z,27.74
2022-08-21T15:47:36.689Z,27.87
2022-08-21T15:50:09.076Z,27.54
2022-08-21T15:52:39.599Z,27.36
2022-08-21T15:55:10.049Z,27.30
2022-08-21T15:57:44.533Z,27.12
2022-08-21T16:00:27.228Z,27.31
2022-08-21T16:03:01.080Z,27.24
2022-08-21T16:05:30.030Z,27.22
2022-08-21T16:08:00.405Z,27.31
2022-08-21T16:10:30.115Z,27.27
2022-08-21T16:13:05.857Z,27.05
2022-08-21T16:15:34.717Z,26.93
2022-08-21T16:18:03.875Z,27.04
2022-08-21T16:20:33.856Z,26.96
2022-08-21T16:23:03.869Z,26.88
2022-08-21T16:25:37.163Z,27.25
2022-08-21T16:28:15.238Z,26.94
2022-08-21T16:30:47.970Z,26.60
2022-08-21T16:33:26.493Z,26.41
2022-08-21T16:35:55.427Z,26.26
2022-08-21T16:38:26.199Z,26.22
2022-08-21T16:40:55.144Z,26.05
2022-08-21T16:43:27.465Z,25.98
2022-08-21T16:45:57.901Z,25.86
2022-08-21T16:48:27.116Z,25.85
2022-08-21T16:50:55.874Z,25.78
2022-08-21T16:53:28.030Z,25.77
2022-08-21T16:55:56.935Z,25.68
2022-08-21T16:58:30.493Z,25.62
2022-08-21T17:01:01.591Z,25.43
2022-08-21T17:03:35.471Z,25.44
2022-08-21T17:06:05.005Z,25.37
2022-08-21T17:08:35.015Z,25.33
2022-08-21T17:11:08.567Z,25.16
2022-08-21T17:13:37.369Z,25.04
2022-08-21T17:16:07.767Z,24.98
2022-08-21T17:18:36.381Z,25.01
2022-08-21T17:21:06.192Z,24.96
2022-08-21T17:23:36.641Z,24.92
2022-08-21T17:26:12.850Z,24.80
2022-08-21T17:28:42.617Z,24.75
2022-08-21T17:31:13.502Z,24.54
2022-08-21T17:33:51.047Z,24.50
2022-08-21T17:36:20.985Z,24.45
2022-08-21T17:38:51.632Z,24.44
2022-08-21T17:41:22.434Z,24.37
2022-08-21T17:43:52.406Z,24.32
2022-08-21T17:46:26.186Z,24.25
2022-08-21T17:48:55.641Z,24.09
2022-08-21T17:51:24.900Z,24.02
2022-08-21T17:53:54.962Z,23.99
2022-08-21T17:56:28.762Z,23.93
2022-08-21T17:58:58.045Z,23.86
2022-08-21T18:01:30.191Z,23.83
2022-08-21T18:03:58.864Z,23.79
2022-08-21T18:06:27.885Z,23.75
2022-08-21T18:08:58.409Z,23.73
2022-08-21T18:11:31.366Z,23.62
2022-08-21T18:14:07.365Z,23.57
2022-08-21T18:16:38.209Z,23.50
2022-08-21T18:19:11.901Z,23.50
2022-08-21T18:21:40.667Z,23.50
2022-08-21T18:24:10.908Z,23.44
2022-08-21T18:26:42.185Z,23.44
2022-08-21T18:29:16.890Z,23.44
2022-08-21T18:31:47.511Z,23.41
2022-08-21T18:34:25.896Z,23.40
2022-08-21T18:36:57.060Z,23.35
2022-08-21T18:39:36.818Z,23.32
2022-08-21T18:42:12.212Z,23.24
2022-08-21T18:44:45.046Z,23.15
2022-08-21T18:47:22.473Z,23.14
2022-08-21T18:49:51.659Z,23.08
2022-08-21T18:52:20.637Z,23.02
2022-08-21T18:54:50.649Z,22.98
2022-08-21T18:57:20.978Z,22.94
2022-08-21T18:59:49.906Z,22.93
2022-08-21T19:02:18.562Z,22.89
2022-08-21T19:04:47.999Z,22.75
2022-08-21T19:07:19.903Z,22.71
2022-08-21T19:10:20.911Z,22.68
2022-08-21T19:12:41.588Z,22.62
2022-08-21T19:15:16.865Z,22.59
2022-08-21T19:17:47.753Z,22.56
2022-08-21T19:20:26.188Z,22.53
2022-08-21T19:22:56.339Z,22.49
2022-08-21T19:25:33.568Z,22.48
2022-08-21T19:28:10.742Z,22.46
2022-08-21T19:31:04.781Z,22.44
2022-08-21T19:33:39.346Z,22.44
2022-08-21T19:36:11.294Z,22.44
2022-08-21T19:38:41.323Z,22.41
2022-08-21T19:41:16.637Z,22.37
2022-08-21T19:43:50.814Z,22.29
2022-08-21T19:46:26.996Z,22.26
2022-08-21T19:48:58.106Z,22.23
2022-08-21T19:51:27.816Z,22.18
2022-08-21T19:53:57.631Z,22.11
2022-08-21T19:56:30.867Z,22.07
2022-08-21T19:59:02.154Z,22.02
2022-08-21T20:01:32.589Z,21.98
2022-08-21T20:04:01.406Z,21.96
2022-08-21T20:06:30.130Z,21.98
2022-08-21T20:08:59.205Z,21.97
2022-08-21T20:11:33.025Z,21.97
2022-08-21T20:14:03.099Z,21.96
2022-08-21T20:16:32.585Z,21.93
2022-08-21T20:19:03.596Z,21.96
2022-08-21T20:21:43.305Z,21.94
2022-08-21T20:24:22.335Z,21.83
2022-08-21T20:26:58.413Z,21.81
2022-08-21T20:29:35.037Z,21.77
2022-08-21T20:32:12.321Z,21.75
2022-08-21T20:34:41.836Z,21.71
2022-08-21T20:37:14.093Z,21.70
2022-08-21T20:40:04.231Z,21.67
2022-08-21T20:42:34.295Z,21.66
2022-08-21T20:45:08.033Z,21.62
2022-08-21T20:47:38.485Z,21.60
2022-08-21T20:50:14.068Z,21.55
2022-08-21T20:52:43.662Z,21.47
2022-08-21T20:55:16.839Z,21.48
2022-08-21T20:57:57.857Z,21.53
2022-08-21T21:00:33.938Z,21.48
2022-08-21T21:03:09.945Z,21.47
2022-08-21T21:05:48.364Z,21.37
2022-08-21T21:08:26.129Z,21.31
2022-08-21T21:10:59.558Z,21.25
2022-08-21T21:13:35.797Z,21.28
2022-08-21T21:16:13.884Z,21.26
2022-08-21T21:18:47.854Z,21.15
2022-08-21T21:21:27.704Z,21.03
2022-08-21T21:24:07.295Z,20.96
2022-08-21T21:26:48.610Z,20.91
2022-08-21T21:29:25.642Z,20.85
2022-08-21T21:31:56.561Z,20.83
2022-08-21T21:34:28.107Z,20.90
2022-08-21T21:37:04.027Z,20.87
2022-08-21T21:39:44.728Z,20.77
2022-08-21T21:42:30.017Z,20.72
2022-08-21T21:45:24.479Z,20.70
2022-08-21T21:48:12.882Z,20.67
2022-08-21T21:50:54.132Z,20.61
2022-08-21T21:53:54.146Z,20.63
2022-08-21T21:56:35.934Z,20.62
2022-08-21T21:59:34.167Z,20.61
2022-08-21T22:02:16.913Z,20.62
2022-08-21T22:04:58.341Z,20.61
2022-08-21T22:07:38.460Z,20.59
2022-08-21T22:10:30.194Z,20.62
2022-08-21T22:13:26.418Z,20.57
2022-08-21T22:15:56.633Z,20.52
2022-08-21T22:18:32.433Z,20.52
2022-08-21T22:21:05.705Z,20.52
2022-08-21T22:23:42.232Z,20.50
2022-08-21T22:26:18.837Z,20.55
2022-08-21T22:28:51.831Z,20.59
2022-08-21T22:31:24.821Z,20.61
2022-08-21T22:34:18.205Z,20.57
2022-08-21T22:36:57.042Z,20.50
2022-08-21T22:39:35.909Z,20.50
2022-08-21T22:42:13.893Z,20.40
2022-08-21T22:44:52.981Z,20.35
2022-08-21T22:47:26.415Z,20.33
2022-08-21T22:50:03.861Z,20.37
2022-08-21T22:52:37.004Z,20.32
2022-08-21T22:55:25.359Z,20.30
2022-08-21T22:58:11.481Z,20.26
2022-08-21T23:00:55.475Z,20.29
2022-08-21T23:03:32.629Z,20.27
2022-08-21T23:06:12.683Z,20.26
2022-08-21T23:08:44.196Z,20.25
2022-08-21T23:11:20.982Z,20.16
2022-08-21T23:13:55.182Z,20.08
2022-08-21T23:19:54.844Z,20.09
2022-08-21T23:22:40.643Z,20.08
2022-08-21T23:25:44.955Z,20.05
2022-08-21T23:28:34.818Z,20.20
2022-08-21T23:31:18.640Z,20.16
2022-08-21T23:34:10.709Z,19.91
2022-08-21T23:37:23.239Z,19.84
2022-08-21T23:40:14.976Z,19.83
2022-08-21T23:43:03.257Z,19.80
2022-08-21T23:45:48.789Z,19.80
2022-08-21T23:48:35.937Z,19.61
2022-08-21T23:51:15.546Z,19.55
2022-08-21T23:54:00.042Z,19.78
2022-08-21T23:56:50.560Z,19.62
2022-08-21T23:59:31.735Z,19.57
